createdAt,value
2023-01-29T00:02:30.628Z,99265.44
2023-01-29T00:05:32.552Z,99269.94
2023-01-29T00:08:35.841Z,99266.38
2023-01-29T00:11:37.805Z,99261.75
2023-01-29T00:14:39.732Z,99266.94
2023-01-29T00:17:41.614Z,99254.53
2023-01-29T00:20:44.099Z,99247.78
2023-01-29T00:23:46.307Z,99248.53
2023-01-29T00:26:50.132Z,99240.81
2023-01-29T00:30:08.958Z,99246.28
2023-01-29T00:33:12.025Z,99234.91
2023-01-29T00:36:14.865Z,99230.69
2023-01-29T00:39:16.789Z,99228.72
2023-01-29T00:42:37.121Z,99239.50
2023-01-29T00:45:39.080Z,99239.50
2023-01-29T00:48:41.143Z,99246.47
2023-01-29T00:51:43.540Z,99239.41
2023-01-29T00:54:45.457Z,99236.97
2023-01-29T00:57:47.553Z,99234.44
2023-01-29T01:00:49.608Z,99236.88
2023-01-29T01:03:51.521Z,99234.25
2023-01-29T01:06:53.435Z,99232.28
2023-01-29T01:10:14.120Z,99225.06
2023-01-29T01:13:16.216Z,99223.19
2023-01-29T01:16:19.095Z,99220.75
2023-01-29T01:19:21.088Z,99210.97
2023-01-29T01:22:23.396Z,99216.97
2023-01-29T01:25:26.860Z,99220.94
2023-01-29T01:28:29.114Z,99225.06
2023-01-29T01:31:31.129Z,99223.38
2023-01-29T01:34:33.461Z,99225.06
2023-01-29T01:37:37.691Z,99217.38
2023-01-29T01:40:45.465Z,99219.44
2023-01-29T01:44:07.985Z,99220.28
2023-01-29T01:47:09.961Z,99226.56
2023-01-29T01:50:30.069Z,99217.00
2023-01-29T01:53:41.715Z,99215.31
2023-01-29T01:56:50.289Z,99215.03
2023-01-29T02:00:11.263Z,99217.66
2023-01-29T02:03:36.987Z,99221.31
2023-01-29T02:06:59.625Z,99217.66
2023-01-29T02:10:10.124Z,99215.03
2023-01-29T02:13:13.081Z,99218.69
2023-01-29T02:16:14.904Z,99212.59
2023-01-29T02:19:27.809Z,99217.94
2023-01-29T02:22:56.853Z,99219.63
2023-01-29T02:26:11.167Z,99222.16
2023-01-29T02:29:23.239Z,99223.19
2023-01-29T02:32:41.643Z,99224.13
2023-01-29T02:35:55.436Z,99217.94
2023-01-29T02:39:23.509Z,99218.78
2023-01-29T02:42:32.455Z,99211.94
2023-01-29T02:45:52.727Z,99212.88
2023-01-29T02:49:02.064Z,99211.94
2023-01-29T02:52:21.589Z,99207.78
2023-01-29T02:55:39.149Z,99201.69
2023-01-29T02:58:47.974Z,99204.69
2023-01-29T03:01:57.052Z,99210.63
2023-01-29T03:05:01.881Z,99203.56
2023-01-29T03:08:11.376Z,99211.56
2023-01-29T03:11:15.084Z,99206.66
2023-01-29T03:14:55.221Z,99202.16
2023-01-29T03:18:02.495Z,99198.97
2023-01-29T03:21:30.978Z,99206.66
2023-01-29T03:24:51.634Z,99209.50
2023-01-29T03:28:20.770Z,99202.53
2023-01-29T03:31:44.083Z,99203.66
2023-01-29T03:34:52.471Z,99207.69
2023-01-29T03:37:56.943Z,99206.00
2023-01-29T03:41:17.089Z,99204.97
2023-01-29T03:44:49.103Z,99205.72
2023-01-29T03:48:14.333Z,99207.03
2023-01-29T03:51:27.253Z,99207.63
2023-01-29T03:54:37.529Z,99201.41
2023-01-29T03:57:50.250Z,99199.53
2023-01-29T04:01:01.480Z,99202.91
2023-01-29T04:04:15.136Z,99204.59
2023-01-29T04:07:19.084Z,99203.09
2023-01-29T04:10:26.939Z,99204.03
2023-01-29T04:13:33.799Z,99208.34
2023-01-29T04:16:44.592Z,99200.38
2023-01-29T04:19:49.804Z,99204.97
2023-01-29T04:22:52.433Z,99208.72
2023-01-29T04:26:18.993Z,99212.03
2023-01-29T04:29:30.392Z,99207.81
2023-01-29T04:33:00.295Z,99215.78
2023-01-29T04:36:14.451Z,99213.34
2023-01-29T04:39:27.572Z,99222.34
2023-01-29T04:42:40.537Z,99219.81
2023-01-29T04:46:00.664Z,99222.53
2023-01-29T04:49:18.496Z,99229.09
2023-01-29T04:52:24.080Z,99221.13
2023-01-29T04:55:36.153Z,99229.84
2023-01-29T04:58:49.965Z,99221.97
2023-01-29T05:01:53.286Z,99228.81
2023-01-29T05:04:58.611Z,99234.44
2023-01-29T05:08:00.515Z,99232.75
2023-01-29T05:11:02.380Z,99227.50
2023-01-29T05:14:08.119Z,99231.22
2023-01-29T05:17:15.873Z,99232.00
2023-01-29T05:20:18.353Z,99233.09
2023-01-29T05:23:22.536Z,99229.72
2023-01-29T05:26:42.999Z,99238.34
2023-01-29T05:29:48.312Z,99231.50
2023-01-29T05:32:50.257Z,99236.94
2023-01-29T05:35:52.307Z,99233.00
2023-01-29T05:38:54.163Z,99229.19
2023-01-29T05:41:56.056Z,99234.44
2023-01-29T05:44:57.960Z,99226.81
2023-01-29T05:48:00.696Z,99232.06
2023-01-29T05:51:04.792Z,99237.50
2023-01-29T05:54:06.755Z,99245.13
2023-01-29T05:57:08.687Z,99236.66
2023-01-29T06:00:13.183Z,99239.47
2023-01-29T06:03:15.844Z,99230.38
2023-01-29T06:06:18.081Z,99229.63
2023-01-29T06:09:20.082Z,99233.09
2023-01-29T06:12:22.109Z,99227.94
2023-01-29T06:15:26.462Z,99229.81
2023-01-29T06:18:28.485Z,99224.75
2023-01-29T06:21:30.321Z,99224.84
2023-01-29T06:24:32.948Z,99225.50
2023-01-29T06:27:34.867Z,99224.75
2023-01-29T06:30:36.870Z,99212.28
2023-01-29T06:33:38.816Z,99218.09
2023-01-29T06:36:41.954Z,99221.28
2023-01-29T06:39:44.117Z,99222.13
2023-01-29T06:42:46.983Z,99226.66
2023-01-29T06:45:56.799Z,99219.44
2023-01-29T06:49:00.798Z,99229.00
2023-01-29T06:52:02.706Z,99211.44
2023-01-29T06:55:04.948Z,99220.44
2023-01-29T06:58:08.625Z,99219.50
2023-01-29T07:01:19.702Z,99217.72
2023-01-29T07:04:31.187Z,99213.59
2023-01-29T07:07:36.784Z,99216.22
2023-01-29T07:10:38.703Z,99208.91
2023-01-29T07:13:40.586Z,99208.53
2023-01-29T07:16:42.575Z,99204.31
2023-01-29T07:19:44.468Z,99199.34
2023-01-29T07:22:46.381Z,99191.09
2023-01-29T07:25:49.942Z,99183.03
2023-01-29T07:28:51.981Z,99182.66
2023-01-29T07:31:53.993Z,99186.03
2023-01-29T07:34:55.906Z,99185.47
2023-01-29T07:37:58.316Z,99185.28
2023-01-29T07:41:01.349Z,99196.25
2023-01-29T07:44:05.005Z,99198.88
2023-01-29T07:47:06.955Z,99203.09
2023-01-29T07:50:09.558Z,99215.59
2023-01-29T07:53:15.276Z,99209.09
2023-01-29T07:56:17.189Z,99212.47
2023-01-29T07:59:19.072Z,99200.84
2023-01-29T08:02:20.951Z,99201.13
2023-01-29T08:05:22.894Z,99206.09
2023-01-29T08:08:25.891Z,99207.88
2023-01-29T08:11:27.706Z,99208.22
2023-01-29T08:14:29.634Z,99203.22
2023-01-29T08:17:31.581Z,99200.41
2023-01-29T08:20:33.551Z,99198.22
2023-01-29T08:23:35.509Z,99197.19
2023-01-29T08:26:37.409Z,99203.19
2023-01-29T08:29:39.368Z,99207.31
2023-01-29T08:32:41.229Z,99195.09
2023-01-29T08:35:43.222Z,99193.22
2023-01-29T08:38:45.232Z,99189.84
2023-01-29T08:41:47.128Z,99192.47
2023-01-29T08:44:48.974Z,99190.28
2023-01-29T08:47:51.082Z,99185.44
2023-01-29T08:50:53.123Z,99191.81
2023-01-29T08:53:55.077Z,99183.50
2023-01-29T08:56:56.987Z,99180.75
2023-01-29T08:59:59.026Z,99177.47
2023-01-29T09:03:01.135Z,99173.72
2023-01-29T09:06:03.821Z,99166.38
2023-01-29T09:09:05.759Z,99166.06
2023-01-29T09:12:07.807Z,99169.75
2023-01-29T09:15:10.178Z,99166.16
2023-01-29T09:18:12.103Z,99157.09
2023-01-29T09:21:13.922Z,99160.94
2023-01-29T09:24:16.074Z,99164.31
2023-01-29T09:27:18.048Z,99155.69
2023-01-29T09:30:19.932Z,99155.69
2023-01-29T09:33:21.953Z,99162.44
2023-01-29T09:36:23.922Z,99165.81
2023-01-29T09:39:26.994Z,99159.81
2023-01-29T09:43:21.226Z,99146.66
2023-01-29T09:46:30.981Z,99143.81
2023-01-29T09:49:39.526Z,99147.31
2023-01-29T09:52:48.130Z,99150.03
2023-01-29T09:55:55.609Z,99149.84
2023-01-29T09:59:01.381Z,99143.94
2023-01-29T10:02:22.631Z,99142.25
2023-01-29T10:05:40.896Z,99139.41
2023-01-29T10:08:54.784Z,99123.38
2023-01-29T10:12:22.826Z,99129.28
2023-01-29T10:15:45.253Z,99132.31
2023-01-29T10:19:09.079Z,99132.56
2023-01-29T10:22:25.772Z,99128.34
2023-01-29T10:25:28.151Z,99131.81
2023-01-29T10:28:46.615Z,99131.63
2023-01-29T10:31:55.550Z,99128.38
2023-01-29T10:35:21.687Z,99130.19
2023-01-29T10:38:44.371Z,99125.06
2023-01-29T10:42:14.191Z,99128.94
2023-01-29T10:45:46.473Z,99125.56
2023-01-29T10:48:54.417Z,99123.88
2023-01-29T10:51:56.201Z,99118.72
2023-01-29T10:55:20.009Z,99112.81
2023-01-29T10:58:36.715Z,99114.59
2023-01-29T11:01:38.708Z,99109.72
2023-01-29T11:04:40.668Z,99109.63
2023-01-29T11:07:42.768Z,99107.53
2023-01-29T11:11:09.808Z,99106.06
2023-01-29T11:14:22.688Z,99104.50
2023-01-29T11:17:26.155Z,99093.44
2023-01-29T11:21:02.960Z,99100.38
2023-01-29T11:24:07.367Z,99101.78
2023-01-29T11:27:33.255Z,99108.63
2023-01-29T11:30:39.435Z,99106.09
2023-01-29T11:33:41.582Z,99100.19
2023-01-29T11:36:45.069Z,99093.25
2023-01-29T11:39:50.692Z,99106.41
2023-01-29T11:42:53.846Z,99109.56
2023-01-29T11:45:59.549Z,99109.16
2023-01-29T11:49:14.382Z,99112.00
2023-01-29T11:52:25.407Z,99107.69
2023-01-29T11:55:49.439Z,99114.63
2023-01-29T11:58:55.600Z,99116.91
2023-01-29T12:02:06.762Z,99114.28
2023-01-29T12:05:18.837Z,99114.09
2023-01-29T12:08:23.622Z,99109.66
2023-01-29T12:11:31.786Z,99113.88
2023-01-29T12:14:34.423Z,99113.78
2023-01-29T12:17:39.184Z,99112.31
2023-01-29T12:20:56.293Z,99113.53
2023-01-29T12:24:02.451Z,99121.00
2023-01-29T12:27:22.639Z,99114.91
2023-01-29T12:30:54.918Z,99115.09
2023-01-29T12:34:15.665Z,99128.78
2023-01-29T12:37:18.140Z,99120.41
2023-01-29T12:40:25.384Z,99121.25
2023-01-29T12:43:42.343Z,99130.41
2023-01-29T12:46:50.663Z,99119.47
2023-01-29T12:49:57.204Z,99133.16
2023-01-29T12:53:25.368Z,99121.13
2023-01-29T12:56:33.114Z,99121.84
2023-01-29T13:00:01.774Z,99124.66
2023-01-29T13:03:25.712Z,99122.03
2023-01-29T13:06:36.682Z,99125.50
2023-01-29T13:09:41.953Z,99123.94
2023-01-29T13:12:57.559Z,99119.31
2023-01-29T13:16:01.576Z,99125.16
2023-01-29T13:19:07.537Z,99123.72
2023-01-29T13:22:21.996Z,99126.06
2023-01-29T13:25:24.174Z,99128.78
2023-01-29T13:28:27.849Z,99125.31
2023-01-29T13:31:29.859Z,99130.97
2023-01-29T13:34:35.560Z,99130.97
2023-01-29T13:37:46.499Z,99130.31
2023-01-29T13:40:52.073Z,99123.19
2023-01-29T13:43:54.113Z,99133.59
2023-01-29T13:46:58.206Z,99134.44
2023-01-29T13:50:21.350Z,99128.59
2023-01-29T13:53:27.160Z,99123.81
2023-01-29T13:56:33.513Z,99130.03
2023-01-29T14:00:05.397Z,99133.34
2023-01-29T14:03:11.867Z,99132.50
2023-01-29T14:06:41.616Z,99129.88
2023-01-29T14:09:43.459Z,99131.28
2023-01-29T14:12:46.397Z,99133.44
2023-01-29T14:15:57.434Z,99129.81
2023-01-29T14:19:02.332Z,99132.06
2023-01-29T14:22:05.664Z,99131.97
2023-01-29T14:25:16.408Z,99137.22
2023-01-29T14:28:25.219Z,99144.56
2023-01-29T14:31:31.477Z,99142.88
2023-01-29T14:34:36.956Z,99146.25
2023-01-29T14:37:41.154Z,99142.41
2023-01-29T14:40:46.767Z,99147.28
2023-01-29T14:43:49.109Z,99147.09
2023-01-29T14:46:51.118Z,99144.09
2023-01-29T14:50:03.653Z,99149.47
2023-01-29T14:53:14.684Z,99148.34
2023-01-29T14:56:24.679Z,99149.28
2023-01-29T14:59:31.569Z,99153.03
2023-01-29T15:02:43.213Z,99157.44
2023-01-29T15:05:46.943Z,99155.75
2023-01-29T15:09:11.152Z,99152.19
2023-01-29T15:12:28.655Z,99150.78
2023-01-29T15:15:46.277Z,99156.16
2023-01-29T15:18:51.228Z,99151.75
2023-01-29T15:22:09.375Z,99157.84
2023-01-29T15:25:15.652Z,99157.84
2023-01-29T15:28:17.786Z,99162.06
2023-01-29T15:31:20.463Z,99170.03
2023-01-29T15:34:22.985Z,99168.53
2023-01-29T15:37:33.303Z,99177.09
2023-01-29T15:40:35.291Z,99182.91
2023-01-29T15:43:44.507Z,99186.66
2023-01-29T15:46:52.713Z,99177.00
2023-01-29T15:49:57.331Z,99173.63
2023-01-29T15:53:03.815Z,99180.75
2023-01-29T15:56:10.736Z,99176.44
2023-01-29T15:59:23.447Z,99175.31
2023-01-29T16:02:28.286Z,99171.94
2023-01-29T16:05:33.107Z,99171.94
2023-01-29T16:08:35.822Z,99170.88
2023-01-29T16:11:37.982Z,99170.88
2023-01-29T16:14:41.585Z,99167.59
2023-01-29T16:17:45.779Z,99173.41
2023-01-29T16:20:53.197Z,99179.06
2023-01-29T16:24:15.927Z,99184.22
2023-01-29T16:27:17.849Z,99181.03
2023-01-29T16:30:20.034Z,99178.41
2023-01-29T16:33:21.902Z,99174.19
2023-01-29T16:36:27.657Z,99174.38
2023-01-29T16:39:37.898Z,99175.41
2023-01-29T16:42:41.656Z,99176.44
2023-01-29T16:46:01.286Z,99186.22
2023-01-29T16:49:25.772Z,99181.91
2023-01-29T16:52:29.576Z,99188.00
2023-01-29T16:55:43.703Z,99186.97
2023-01-29T16:58:53.402Z,99189.78
2023-01-29T17:01:56.179Z,99188.84
2023-01-29T17:05:02.647Z,99189.88
2023-01-29T17:08:05.849Z,99188.84
2023-01-29T17:11:08.328Z,99188.84
2023-01-29T17:14:18.636Z,99182.53
2023-01-29T17:17:20.543Z,99188.47
2023-01-29T17:20:23.020Z,99186.03
2023-01-29T17:23:25.017Z,99192.31
2023-01-29T17:26:27.007Z,99187.06
2023-01-29T17:29:31.771Z,99187.44
2023-01-29T17:32:43.945Z,99183.97
2023-01-29T17:35:47.333Z,99193.06
2023-01-29T17:38:49.200Z,99192.50
2023-01-29T17:41:56.171Z,99189.88
2023-01-29T17:44:58.077Z,99195.50
2023-01-29T17:48:00.009Z,99200.84
2023-01-29T17:51:04.634Z,99197.56
2023-01-29T17:54:06.543Z,99193.16
2023-01-29T17:57:18.411Z,99195.13
2023-01-29T18:00:23.957Z,99195.97
2023-01-29T18:03:27.543Z,99196.72
2023-01-29T18:06:30.083Z,99193.53
2023-01-29T18:09:32.052Z,99187.16
2023-01-29T18:12:33.952Z,99182.09
2023-01-29T18:15:35.943Z,99184.53
2023-01-29T18:18:37.837Z,99179.09
2023-01-29T18:21:39.725Z,99180.88
2023-01-29T18:24:41.613Z,99180.41
2023-01-29T18:27:43.854Z,99180.88
2023-01-29T18:30:47.539Z,99182.06
2023-01-29T18:33:49.720Z,99185.19
2023-01-29T18:36:51.611Z,99181.81
2023-01-29T18:39:53.920Z,99193.16
2023-01-29T18:42:55.899Z,99195.78
2023-01-29T18:45:59.958Z,99194.94
2023-01-29T18:49:01.909Z,99197.38
2023-01-29T18:52:03.921Z,99192.22
2023-01-29T18:55:06.402Z,99206.47
2023-01-29T18:58:26.211Z,99202.44
2023-01-29T19:01:32.077Z,99210.03
2023-01-29T19:04:34.016Z,99188.00
2023-01-29T19:07:36.114Z,99188.84
2023-01-29T19:10:38.152Z,99190.72
2023-01-29T19:13:40.981Z,99186.75
2023-01-29T19:16:43.783Z,99180.66
2023-01-29T19:19:45.836Z,99189.41
2023-01-29T19:22:48.399Z,99179.16
2023-01-29T19:25:50.389Z,99174.38
2023-01-29T19:28:52.247Z,99182.16
2023-01-29T19:31:54.197Z,99186.47
2023-01-29T19:34:57.837Z,99192.09
2023-01-29T19:38:00.884Z,99186.09
2023-01-29T19:41:02.972Z,99191.78
2023-01-29T19:44:05.008Z,99184.66
2023-01-29T19:47:07.014Z,99198.28
2023-01-29T19:50:10.582Z,99194.16
2023-01-29T19:53:12.507Z,99200.06
2023-01-29T19:56:16.568Z,99194.63
2023-01-29T19:59:18.882Z,99192.84
2023-01-29T20:02:20.864Z,99198.94
2023-01-29T20:05:26.262Z,99200.53
2023-01-29T20:08:28.127Z,99197.44
2023-01-29T20:11:31.146Z,99196.56
2023-01-29T20:14:32.944Z,99206.00
2023-01-29T20:17:34.825Z,99205.41
2023-01-29T20:20:39.829Z,99206.53
2023-01-29T20:23:43.359Z,99213.06
2023-01-29T20:26:46.866Z,99216.97
2023-01-29T20:29:48.865Z,99220.78
2023-01-29T20:32:50.782Z,99223.94
2023-01-29T20:36:03.240Z,99227.75
2023-01-29T20:39:05.223Z,99241.88
2023-01-29T20:42:07.857Z,99243.16
2023-01-29T20:45:10.192Z,99242.66
2023-01-29T20:48:12.389Z,99253.63
2023-01-29T20:51:17.767Z,99247.81
2023-01-29T20:54:19.830Z,99248.06
2023-01-29T20:57:21.812Z,99248.22
2023-01-29T21:00:23.871Z,99240.59
2023-01-29T21:03:28.465Z,99235.53
2023-01-29T21:06:30.402Z,99232.16
2023-01-29T21:09:32.341Z,99233.25
2023-01-29T21:12:35.113Z,99237.81
2023-01-29T21:15:37.088Z,99232.13
2023-01-29T21:18:39.100Z,99236.59
2023-01-29T21:21:40.963Z,99237.59
2023-01-29T21:24:42.969Z,99232.63
2023-01-29T21:27:45.550Z,99237.34
2023-01-29T21:30:48.007Z,99232.19
2023-01-29T21:33:50.096Z,99229.78
2023-01-29T21:36:52.129Z,99237.97
2023-01-29T21:39:54.042Z,99229.28
2023-01-29T21:43:12.227Z,99221.56
2023-01-29T21:46:15.200Z,99226.13
2023-01-29T21:49:17.115Z,99214.28
2023-01-29T21:52:20.989Z,99215.97
2023-01-29T21:55:25.556Z,99213.59
2023-01-29T21:58:27.751Z,99211.53
2023-01-29T22:01:37.515Z,99204.00
2023-01-29T22:04:42.029Z,99207.69
2023-01-29T22:07:44.502Z,99208.63
2023-01-29T22:10:46.552Z,99198.22
2023-01-29T22:13:48.591Z,99206.94
2023-01-29T22:16:50.536Z,99208.00
2023-01-29T22:19:53.617Z,99209.09
2023-01-29T22:23:00.528Z,99210.25
2023-01-29T22:26:03.909Z,99209.47
2023-01-29T22:29:05.762Z,99210.41
2023-01-29T22:32:08.330Z,99212.25
2023-01-29T22:35:11.250Z,99207.16
2023-01-29T22:38:13.114Z,99196.72
2023-01-29T22:41:15.379Z,99197.00
2023-01-29T22:44:17.304Z,99192.78
2023-01-29T22:47:19.289Z,99199.09
2023-01-29T22:50:22.241Z,99188.72
2023-01-29T22:53:24.008Z,99186.56
2023-01-29T22:56:27.532Z,99181.16
2023-01-29T22:59:30.208Z,99183.69
2023-01-29T23:02:32.897Z,99191.78
2023-01-29T23:05:34.804Z,99184.09
2023-01-29T23:08:36.701Z,99185.38
2023-01-29T23:11:38.652Z,99189.06
2023-01-29T23:14:40.870Z,99191.75
2023-01-29T23:17:42.808Z,99193.84
2023-01-29T23:20:44.648Z,99194.97
2023-01-29T23:23:47.339Z,99193.66
2023-01-29T23:27:07.533Z,99193.81
2023-01-29T23:30:09.974Z,99186.47
2023-01-29T23:33:12.251Z,99182.72
2023-01-29T23:36:14.541Z,99186.31
2023-01-29T23:39:16.706Z,99180.38
2023-01-29T23:42:18.721Z,99180.31
2023-01-29T23:45:20.558Z,99177.91
2023-01-29T23:48:22.864Z,99177.50
2023-01-29T23:51:24.757Z,99182.88
2023-01-29T23:54:26.906Z,99172.84
2023-01-29T23:57:28.759Z,99177.00
